Time;durP1;ratioP1;P1;durP2;ratioP2;P2;SDS_P1;SDS_P2;PMS_P1;PMS_P2;Temp;Humidity;BMP_temperature;BMP_pressure;BME280_temperature;BME280_humidity;BME280_pressure;Samples;Min_cycle;Max_cycle;Signal;HPM_P1;HPM_P2
2022/11/08 00:03:31;;;;;;;18.83;3.28;;;12.60;99.90;;;;;;5104068;27;20519;-74
2022/11/08 00:14:11;;;;;;;10.85;3.00;;;12.60;99.90;;;;;;5106007;27;20163;-73
2022/11/08 00:16:36;;;;;;;17.30;3.40;;;12.70;99.90;;;;;;5089092;28;20161;-72
2022/11/08 00:19:02;;;;;;;13.63;3.35;;;12.70;99.90;;;;;;5103030;27;20039;-73
2022/11/08 00:21:28;;;;;;;16.17;3.08;;;12.70;99.90;;;;;;5100495;28;20036;-74
2022/11/08 00:23:54;;;;;;;17.55;3.30;;;12.70;99.90;;;;;;5113512;27;20039;-74
2022/11/08 00:26:20;;;;;;;15.15;2.88;;;12.70;99.90;;;;;;5121646;27;20043;-74
2022/11/08 00:28:48;;;;;;;16.35;3.15;;;12.70;99.90;;;;;;5099700;28;20587;-74
2022/11/08 00:31:13;;;;;;;17.48;3.72;;;12.70;99.90;;;;;;5100061;28;20032;-74
2022/11/08 00:33:39;;;;;;;18.38;3.67;;;12.70;99.90;;;;;;5083130;28;20108;-74
2022/11/08 00:36:05;;;;;;;20.75;3.90;;;12.70;99.90;;;;;;5096158;28;20044;-74
2022/11/08 00:38:31;;;;;;;14.35;3.22;;;12.70;99.90;;;;;;5076284;28;20032;-74
2022/11/08 00:40:57;;;;;;;16.25;3.10;;;12.70;99.90;;;;;;5081250;28;20046;-74
2022/11/08 00:43:23;;;;;;;17.15;3.10;;;12.70;99.90;;;;;;5104051;28;20180;-74
2022/11/08 00:45:48;;;;;;;16.67;3.13;;;12.70;99.90;;;;;;5097240;27;20048;-73
2022/11/08 00:48:14;;;;;;;20.15;3.67;;;12.70;99.90;;;;;;5102260;28;20048;-74
2022/11/08 00:50:40;;;;;;;10.23;2.53;;;12.70;99.90;;;;;;5107811;28;20071;-75
2022/11/08 00:53:06;;;;;;;12.18;2.47;;;12.70;99.90;;;;;;5117330;27;20127;-74
2022/11/08 00:55:32;;;;;;;14.60;2.85;;;12.70;99.90;;;;;;5105427;27;20055;-75
2022/11/08 00:57:58;;;;;;;18.80;3.03;;;12.80;99.90;;;;;;5123728;27;20584;-74
2022/11/08 01:00:23;;;;;;;17.77;3.15;;;12.70;99.90;;;;;;5105674;28;20112;-75
2022/11/08 01:03:17;;;;;;;13.07;2.47;;;12.80;99.90;;;;;;5105989;28;20172;-74
2022/11/08 01:05:38;;;;;;;17.85;2.38;;;12.80;99.90;;;;;;5108570;27;20035;-74
2022/11/08 01:08:04;;;;;;;13.32;3.03;;;12.80;99.90;;;;;;5106460;28;20381;-74
2022/11/08 01:10:30;;;;;;;16.08;4.07;;;12.70;99.90;;;;;;5105043;27;20492;-74
2022/11/08 01:12:55;;;;;;;14.95;2.85;;;12.80;99.90;;;;;;5103488;28;20039;-74
2022/11/08 01:15:21;;;;;;;12.88;2.45;;;12.70;99.90;;;;;;5103927;28;20461;-73
2022/11/08 01:17:47;;;;;;;15.02;3.05;;;12.70;99.90;;;;;;5105593;28;20044;-74
2022/11/08 01:20:13;;;;;;;12.50;2.85;;;12.70;99.90;;;;;;5105842;28;20051;-74
2022/11/08 01:22:38;;;;;;;14.63;2.92;;;12.70;99.90;;;;;;5105518;27;20034;-74
2022/11/08 01:25:07;;;;;;;16.20;2.92;;;12.70;99.90;;;;;;5107139;28;20107;-74
2022/11/08 01:27:33;;;;;;;14.02;2.63;;;12.70;99.90;;;;;;5106722;28;20043;-74
2022/11/08 01:29:59;;;;;;;18.48;3.42;;;12.70;99.90;;;;;;5105742;28;20521;-73
2022/11/08 01:32:24;;;;;;;13.07;2.40;;;12.70;99.90;;;;;;5106612;28;20047;-74
2022/11/08 01:34:50;;;;;;;13.07;2.58;;;12.70;99.90;;;;;;5100336;28;20492;-73
2022/11/08 01:37:16;;;;;;;18.27;2.88;;;12.70;99.90;;;;;;5105106;28;20040;-73
2022/11/08 01:39:42;;;;;;;9.27;2.30;;;12.70;99.90;;;;;;5086536;28;20086;-74
2022/11/08 01:42:07;;;;;;;11.73;2.22;;;12.60;99.90;;;;;;5104488;28;20043;-74
2022/11/08 01:44:33;;;;;;;10.65;2.17;;;12.60;99.90;;;;;;5108430;28;20088;-74
2022/11/08 01:46:59;;;;;;;13.32;2.15;;;12.60;99.90;;;;;;5105788;28;20035;-74
2022/11/08 01:49:32;;;;;;;13.60;2.85;;;12.60;99.90;;;;;;5100952;28;20071;-73
2022/11/08 01:52:11;;;;;;;13.15;2.80;;;12.60;99.90;;;;;;5106281;28;20051;-74
2022/11/08 01:54:46;;;;;;;12.75;3.25;;;12.60;99.90;;;;;;5098657;28;20126;-73
2022/11/08 01:57:16;;;;;;;14.45;3.08;;;12.50;99.90;;;;;;5103584;28;20044;-74
2022/11/08 01:59:46;;;;;;;13.18;3.05;;;12.50;99.90;;;;;;5103283;28;20051;-74
2022/11/08 02:02:12;;;;;;;14.27;2.75;;;12.50;99.90;;;;;;5105868;28;20554;-74
2022/11/08 02:04:41;;;;;;;15.02;2.53;;;12.50;99.90;;;;;;5129494;27;20047;-74
2022/11/08 02:07:07;;;;;;;11.52;2.50;;;12.50;99.90;;;;;;5103766;28;20135;-74
2022/11/08 02:09:37;;;;;;;17.10;2.72;;;12.40;99.90;;;;;;5104334;28;20144;-74
2022/11/08 02:12:04;;;;;;;11.52;2.25;;;12.40;99.90;;;;;;5104046;28;20046;-74
2022/11/08 02:14:31;;;;;;;12.60;2.42;;;12.40;99.90;;;;;;5088449;28;20484;-73
2022/11/08 02:16:56;;;;;;;13.73;2.55;;;12.40;99.90;;;;;;5108897;28;20089;-73
2022/11/08 02:19:40;;;;;;;13.30;2.45;;;12.40;99.90;;;;;;5110554;28;20045;-74
2022/11/08 02:22:13;;;;;;;11.07;2.28;;;12.40;99.90;;;;;;5111065;27;20081;-74
2022/11/08 02:24:39;;;;;;;15.20;2.60;;;12.40;99.90;;;;;;5110666;27;20046;-74
2022/11/08 02:27:05;;;;;;;11.40;2.78;;;12.40;99.90;;;;;;5113058;27;20395;-73
2022/11/08 02:29:33;;;;;;;9.13;2.08;;;12.40;99.90;;;;;;5130876;27;20444;-74
2022/11/08 02:32:00;;;;;;;13.90;2.25;;;12.30;99.90;;;;;;5112814;27;20038;-74
2022/11/08 02:34:42;;;;;;;12.55;2.95;;;12.30;99.90;;;;;;5112304;27;20046;-73
2022/11/08 02:37:07;;;;;;;;;;;12.30;99.90;;;;;;5145111;27;20551;-74
2022/11/08 02:39:33;;;;;;;9.23;2.30;;;12.30;99.90;;;;;;5112649;27;19919;-74
2022/11/08 02:42:00;;;;;;;16.33;3.13;;;12.20;99.90;;;;;;5111967;27;20384;-74
2022/11/08 02:44:26;;;;;;;8.02;1.92;;;12.20;99.90;;;;;;5111202;27;20057;-74
2022/11/08 02:46:52;;;;;;;12.88;2.50;;;12.20;99.90;;;;;;5112674;27;20043;-74
2022/11/08 02:49:18;;;;;;;16.48;2.63;;;12.20;99.90;;;;;;5128631;27;20492;-74
2022/11/08 02:51:43;;;;;;;15.15;2.63;;;12.20;99.90;;;;;;5110912;27;20068;-73
2022/11/08 02:54:09;;;;;;;12.38;2.40;;;12.10;99.90;;;;;;5108976;27;20441;-74
2022/11/08 02:56:35;;;;;;;12.82;2.55;;;12.10;99.90;;;;;;5130075;27;20058;-74
2022/11/08 02:59:01;;;;;;;16.15;2.92;;;12.10;99.90;;;;;;5132316;27;20241;-74
2022/11/08 03:01:26;;;;;;;10.35;2.47;;;12.00;99.90;;;;;;5111851;27;20035;-74
2022/11/08 03:03:52;;;;;;;10.50;2.67;;;12.00;99.90;;;;;;5094298;27;20122;-75
2022/11/08 03:06:18;;;;;;;11.57;2.33;;;12.00;99.90;;;;;;5129238;27;20035;-74
2022/11/08 03:08:43;;;;;;;14.02;2.22;;;12.00;99.90;;;;;;5110336;27;20157;-74
2022/11/08 03:11:09;;;;;;;10.40;2.00;;;12.10;99.90;;;;;;5095723;27;20038;-75
2022/11/08 03:13:35;;;;;;;14.32;2.55;;;11.60;99.90;;;;;;5111663;27;20053;-74
2022/11/08 03:16:05;;;;;;;9.55;2.20;;;11.90;99.90;;;;;;5131467;27;20043;-74
2022/11/08 03:18:30;;;;;;;14.50;2.22;;;11.90;99.90;;;;;;5111541;27;20035;-75
2022/11/08 03:20:59;;;;;;;12.77;2.03;;;11.90;99.90;;;;;;5128137;27;20536;-74
2022/11/08 03:23:24;;;;;;;15.40;2.83;;;12.20;99.90;;;;;;5110305;27;20434;-75
2022/11/08 03:25:50;;;;;;;10.38;2.90;;;11.80;99.90;;;;;;5143790;27;20051;-75
2022/11/08 03:28:16;;;;;;;16.25;2.90;;;11.80;99.90;;;;;;5093593;27;20039;-75
2022/11/08 03:30:42;;;;;;;12.15;2.20;;;11.80;99.90;;;;;;5146224;27;20103;-75
2022/11/08 03:33:07;;;;;;;8.90;2.40;;;11.80;99.90;;;;;;5111814;27;20050;-75
2022/11/08 03:35:33;;;;;;;12.77;2.40;;;11.70;99.90;;;;;;5108823;27;20039;-75
2022/11/08 03:37:58;;;;;;;10.50;2.30;;;11.70;99.90;;;;;;5113026;27;20035;-75
2022/11/08 03:40:25;;;;;;;14.23;2.42;;;11.70;99.90;;;;;;5129664;27;20039;-75
2022/11/08 03:42:51;;;;;;;12.13;2.40;;;11.70;99.90;;;;;;5094204;27;20134;-75
2022/11/08 03:45:17;;;;;;;14.23;2.65;;;11.70;99.90;;;;;;5129387;27;20171;-75
2022/11/08 03:47:45;;;;;;;15.50;2.78;;;11.50;99.90;;;;;;5105211;27;20686;-75
2022/11/08 03:50:12;;;;;;;12.98;2.47;;;11.60;99.90;;;;;;5112374;27;20039;-75
2022/11/08 03:52:42;;;;;;;15.80;2.30;;;11.60;99.90;;;;;;5109538;27;20043;-75
2022/11/08 03:55:12;;;;;;;11.48;2.38;;;11.60;99.90;;;;;;5111430;27;20133;-75
2022/11/08 03:57:39;;;;;;;13.30;2.30;;;11.60;99.90;;;;;;5110260;27;20043;-74
2022/11/08 04:00:07;;;;;;;9.85;2.10;;;11.60;99.90;;;;;;5110340;27;20043;-74
2022/11/08 04:02:33;;;;;;;17.10;2.83;;;11.60;99.90;;;;;;5108219;27;20035;-73
2022/11/08 04:04:58;;;;;;;16.88;2.78;;;11.50;99.90;;;;;;5109865;27;20395;-75
2022/11/08 04:07:24;;;;;;;15.70;2.95;;;11.50;99.90;;;;;;5091077;27;20449;-75
2022/11/08 04:09:49;;;;;;;14.55;3.00;;;11.50;99.90;;;;;;5091451;27;20746;-75
2022/11/08 04:15:15;;;;;;;12.50;2.55;;;11.80;99.90;;;;;;5110057;27;20053;-75
2022/11/08 04:23:10;;;;;;;14.20;2.58;;;11.40;99.90;;;;;;5105509;27;20134;-75
2022/11/08 04:25:36;;;;;;;13.30;2.85;;;11.40;99.90;;;;;;5110126;27;20143;-75
2022/11/08 04:28:02;;;;;;;11.20;2.63;;;11.40;99.90;;;;;;5109112;27;20053;-75
2022/11/08 04:30:28;;;;;;;13.30;3.10;;;11.30;99.90;;;;;;5127736;27;20035;-74
2022/11/08 04:32:53;;;;;;;11.85;2.90;;;11.40;99.90;;;;;;5110404;27;20035;-74
2022/11/08 04:35:19;;;;;;;13.98;2.70;;;11.30;99.90;;;;;;5109305;27;20035;-76
2022/11/08 04:37:45;;;;;;;12.38;3.22;;;11.40;99.90;;;;;;5122113;27;20067;-76
2022/11/08 04:40:12;;;;;;;16.33;2.15;;;11.30;99.90;;;;;;5094224;27;20750;-75
2022/11/08 04:42:43;;;;;;;9.73;2.65;;;11.30;99.90;;;;;;5092918;27;20070;-75
2022/11/08 04:45:09;;;;;;;14.60;2.88;;;11.30;99.90;;;;;;5105334;27;20051;-74
2022/11/08 04:47:35;;;;;;;11.05;2.55;;;11.30;99.90;;;;;;5111332;27;20031;-75
2022/11/08 04:50:01;;;;;;;10.10;2.70;;;11.30;99.90;;;;;;5095042;27;20076;-75
2022/11/08 04:52:26;;;;;;;10.70;2.50;;;11.30;99.90;;;;;;5141665;27;20039;-75
2022/11/08 04:54:52;;;;;;;12.70;2.95;;;11.30;99.90;;;;;;5091811;27;20095;-75
2022/11/08 04:57:18;;;;;;;9.43;2.47;;;11.30;99.90;;;;;;5079390;27;20108;-74
2022/11/08 04:59:43;;;;;;;10.50;2.42;;;11.30;99.90;;;;;;5107513;27;20061;-76
2022/11/08 05:02:09;;;;;;;9.10;2.25;;;11.20;99.90;;;;;;5128989;27;20039;-75
2022/11/08 05:04:35;;;;;;;8.32;2.20;;;11.30;99.90;;;;;;5107161;27;20088;-75
2022/11/08 05:07:01;;;;;;;12.55;2.80;;;11.30;99.90;;;;;;5127071;27;20558;-75
2022/11/08 05:09:26;;;;;;;10.85;2.60;;;11.30;99.90;;;;;;5125150;27;20104;-75
2022/11/08 05:11:52;;;;;;;8.65;2.45;;;11.30;99.90;;;;;;5090282;27;20039;-75
2022/11/08 05:14:18;;;;;;;11.05;2.53;;;11.50;99.90;;;;;;5093281;27;20125;-75
2022/11/08 05:16:43;;;;;;;12.32;2.65;;;11.30;99.90;;;;;;5087041;27;20651;-75
2022/11/08 05:19:09;;;;;;;12.70;3.15;;;11.30;99.90;;;;;;5110844;27;20395;-76
2022/11/08 05:24:19;;;;;;;11.13;2.40;;;11.30;99.90;;;;;;5108154;27;20074;-75
2022/11/08 05:26:47;;;;;;;7.63;2.17;;;11.30;99.90;;;;;;5108854;27;20071;-74
2022/11/08 05:29:14;;;;;;;10.30;2.20;;;11.20;99.90;;;;;;5110798;27;20508;-76
2022/11/08 05:31:40;;;;;;;11.02;2.20;;;11.20;99.90;;;;;;5129011;27;20531;-75
2022/11/08 05:34:06;;;;;;;10.48;2.38;;;11.20;99.90;;;;;;5127234;27;20085;-75
2022/11/08 05:36:32;;;;;;;9.85;2.30;;;11.20;99.90;;;;;;5127018;27;20092;-75
2022/11/08 05:38:58;;;;;;;12.82;2.67;;;11.20;99.90;;;;;;5125653;27;20047;-75
2022/11/08 05:41:25;;;;;;;12.95;2.60;;;11.20;99.90;;;;;;5091534;27;20035;-75
2022/11/08 05:43:53;;;;;;;8.02;2.03;;;11.20;99.90;;;;;;5109125;28;20097;-75
2022/11/08 05:46:21;;;;;;;11.57;2.05;;;11.20;99.90;;;;;;5127558;27;20051;-75
2022/11/08 05:48:47;;;;;;;9.00;2.60;;;11.20;99.90;;;;;;5090356;28;20526;-75
2022/11/08 05:51:15;;;;;;;10.95;2.38;;;11.30;99.90;;;;;;5127453;27;20070;-75
2022/11/08 05:53:41;;;;;;;10.32;2.00;;;11.20;99.90;;;;;;5107003;28;20475;-75
2022/11/08 05:56:07;;;;;;;12.63;2.15;;;11.10;99.90;;;;;;5091955;28;20500;-75
2022/11/08 05:58:34;;;;;;;13.38;2.20;;;11.10;99.90;;;;;;5081233;28;20096;-75
2022/11/08 06:01:02;;;;;;;12.32;3.00;;;11.10;99.90;;;;;;5120682;27;20043;-75
2022/11/08 06:03:28;;;;;;;9.57;2.05;;;11.10;99.90;;;;;;5120741;27;20400;-74
2022/11/08 06:05:54;;;;;;;10.30;2.10;;;11.00;99.90;;;;;;5130699;27;21908;-75
2022/11/08 06:08:20;;;;;;;12.70;2.38;;;11.00;99.90;;;;;;5135594;27;20047;-75
2022/11/08 06:10:46;;;;;;;10.45;2.20;;;11.00;99.90;;;;;;5102333;28;20111;-75
2022/11/08 06:13:11;;;;;;;11.23;2.30;;;11.00;99.90;;;;;;5121846;27;20507;-75
2022/11/08 06:15:37;;;;;;;10.13;2.20;;;11.00;99.90;;;;;;5111625;28;20066;-74
2022/11/08 06:18:04;;;;;;;11.07;2.25;;;10.90;99.90;;;;;;5086399;27;20062;-75
2022/11/08 06:20:30;;;;;;;8.93;2.28;;;10.90;99.90;;;;;;5087744;28;20815;-75
2022/11/08 06:22:56;;;;;;;9.27;1.98;;;10.90;99.90;;;;;;5071472;28;20141;-76
2022/11/08 06:25:22;;;;;;;13.13;2.72;;;10.90;99.90;;;;;;5109339;27;20137;-75
2022/11/08 06:27:48;;;;;;;7.70;2.03;;;10.90;99.90;;;;;;5098959;28;20039;-75
2022/11/08 06:30:13;;;;;;;6.93;1.85;;;10.90;99.90;;;;;;5129586;27;20050;-75
2022/11/08 06:32:40;;;;;;;10.95;2.03;;;10.90;99.90;;;;;;5092690;27;20059;-74
2022/11/08 06:35:06;;;;;;;9.93;2.05;;;10.90;99.90;;;;;;5101701;28;20506;-75
2022/11/08 06:37:32;;;;;;;10.45;1.95;;;11.00;99.90;;;;;;5081904;28;20050;-75
2022/11/08 06:39:58;;;;;;;10.65;2.25;;;10.90;99.90;;;;;;5104517;27;20073;-75
2022/11/08 06:42:26;;;;;;;14.40;2.30;;;10.90;99.90;;;;;;5072289;27;20129;-74
2022/11/08 06:44:52;;;;;;;11.63;2.33;;;10.90;99.90;;;;;;5093070;27;20503;-74
2022/11/08 06:47:17;;;;;;;7.88;2.17;;;10.90;99.90;;;;;;5101073;27;20058;-74
2022/11/08 06:49:44;;;;;;;11.65;2.10;;;10.90;99.90;;;;;;5115884;27;20074;-75
2022/11/08 06:52:10;;;;;;;8.45;2.65;;;10.90;99.90;;;;;;5101074;27;20517;-75
2022/11/08 06:54:36;;;;;;;8.82;2.15;;;10.90;99.90;;;;;;5110166;27;20032;-75
2022/11/08 06:57:02;;;;;;;9.85;2.25;;;11.00;99.90;;;;;;5122553;27;20051;-76
2022/11/08 06:59:28;;;;;;;11.25;1.83;;;11.00;99.90;;;;;;5101099;28;20038;-75
2022/11/08 07:01:54;;;;;;;5.75;1.73;;;11.00;99.90;;;;;;5120751;27;20035;-75
2022/11/08 07:04:20;;;;;;;10.63;2.70;;;11.00;99.90;;;;;;5104742;27;20122;-75
2022/11/08 07:06:46;;;;;;;7.75;2.22;;;11.00;99.90;;;;;;5106195;27;20053;-76
2022/11/08 07:09:11;;;;;;;8.00;1.95;;;11.00;99.90;;;;;;5107469;27;20043;-77
2022/11/08 07:11:37;;;;;;;11.27;2.08;;;11.00;99.90;;;;;;5105219;27;20051;-76
2022/11/08 07:14:03;;;;;;;9.88;2.20;;;11.00;99.90;;;;;;5108120;27;20071;-74
2022/11/08 07:16:29;;;;;;;8.73;2.30;;;11.10;99.90;;;;;;5104371;27;20047;-76
2022/11/08 07:18:54;;;;;;;6.47;2.10;;;11.10;99.90;;;;;;5136758;27;20400;-75
2022/11/08 07:21:22;;;;;;;9.52;2.55;;;11.10;99.90;;;;;;5085556;27;20049;-75
2022/11/08 07:23:48;;;;;;;10.98;2.33;;;11.20;99.90;;;;;;5116724;27;20047;-76
2022/11/08 07:26:14;;;;;;;8.73;2.45;;;11.10;99.90;;;;;;5104053;27;20309;-76
2022/11/08 07:28:40;;;;;;;11.73;2.78;;;11.10;99.90;;;;;;5114878;27;20078;-75
2022/11/08 07:31:07;;;;;;;9.23;2.70;;;11.10;99.90;;;;;;5101906;27;20320;-74
2022/11/08 07:33:33;;;;;;;9.23;2.40;;;11.20;99.90;;;;;;5112378;27;20185;-76
2022/11/08 07:35:59;;;;;;;10.93;2.75;;;11.20;99.90;;;;;;5094294;27;20047;-76
2022/11/08 07:38:25;;;;;;;5.97;2.38;;;11.20;99.90;;;;;;5099159;27;20108;-76
2022/11/08 07:40:55;;;;;;;11.98;2.60;;;11.20;99.90;;;;;;5099041;27;20043;-76
2022/11/08 07:43:21;;;;;;;9.30;2.47;;;11.20;99.90;;;;;;5099721;27;20071;-76
2022/11/08 07:45:59;;;;;;;10.57;2.65;;;11.30;99.90;;;;;;5122175;27;20071;-75
2022/11/08 07:48:27;;;;;;;13.73;3.00;;;11.30;99.90;;;;;;5086080;27;20058;-75
2022/11/08 07:50:53;;;;;;;7.10;2.13;;;11.30;99.90;;;;;;5097792;27;20058;-76
2022/11/08 07:53:19;;;;;;;10.30;2.60;;;11.30;99.90;;;;;;5104402;27;20063;-76
2022/11/08 07:55:46;;;;;;;7.18;2.47;;;11.30;99.90;;;;;;5105061;27;20466;-76
2022/11/08 07:58:13;;;;;;;5.95;2.10;;;11.40;99.90;;;;;;5124352;27;20476;-76
2022/11/08 08:00:41;;;;;;;12.30;2.53;;;11.40;99.90;;;;;;5113889;27;20562;-76
2022/11/08 08:03:09;;;;;;;8.73;2.20;;;11.40;99.90;;;;;;5106541;27;20466;-76
2022/11/08 08:05:38;;;;;;;8.38;2.47;;;11.40;99.90;;;;;;5105057;27;20040;-76
2022/11/08 08:08:08;;;;;;;8.40;2.20;;;11.50;99.90;;;;;;5137865;27;20043;-76
2022/11/08 08:10:34;;;;;;;15.02;3.22;;;11.60;99.90;;;;;;5104382;27;20135;-76
2022/11/08 08:13:00;;;;;;;10.18;2.38;;;11.50;99.90;;;;;;5097280;27;20050;-75
2022/11/08 08:15:26;;;;;;;6.45;2.28;;;11.60;99.90;;;;;;5082929;27;20043;-76
2022/11/08 08:17:52;;;;;;;8.73;2.45;;;11.60;99.90;;;;;;5107191;27;20100;-77
2022/11/08 08:20:18;;;;;;;8.52;2.40;;;11.60;99.90;;;;;;5099272;27;20103;-76
2022/11/08 08:22:49;;;;;;;9.80;2.30;;;11.70;99.90;;;;;;5111185;27;20043;-76
2022/11/08 08:25:15;;;;;;;8.53;2.43;;;11.60;99.90;;;;;;5081332;28;20063;-75
2022/11/08 08:27:49;;;;;;;9.98;2.63;;;11.70;99.90;;;;;;5077637;27;20293;-75
2022/11/08 08:30:16;;;;;;;9.20;2.38;;;11.70;99.90;;;;;;5094151;27;20039;-76
2022/11/08 08:32:43;;;;;;;8.13;2.20;;;11.70;99.90;;;;;;5099455;28;20100;-76
2022/11/08 08:35:09;;;;;;;9.85;2.08;;;11.70;99.90;;;;;;5099952;27;20044;-76
2022/11/08 08:37:35;;;;;;;8.48;2.30;;;11.80;99.90;;;;;;5124218;27;20185;-75
2022/11/08 08:40:00;;;;;;;8.60;2.28;;;11.70;99.90;;;;;;5098118;27;20455;-75
2022/11/08 08:42:26;;;;;;;9.13;2.38;;;11.70;99.90;;;;;;5108692;27;20130;-76
2022/11/08 08:44:52;;;;;;;9.27;2.35;;;11.80;99.90;;;;;;5111821;27;20047;-76
2022/11/08 08:47:18;;;;;;;9.90;2.25;;;11.80;99.90;;;;;;5100096;27;20051;-76
2022/11/08 08:49:43;;;;;;;8.68;2.25;;;11.90;99.90;;;;;;5123621;27;20058;-76
2022/11/08 08:52:09;;;;;;;10.20;2.20;;;11.90;99.90;;;;;;5100345;27;20213;-75
2022/11/08 08:54:35;;;;;;;6.63;2.00;;;11.90;99.90;;;;;;5125287;27;20412;-75
2022/11/08 08:57:01;;;;;;;9.65;2.35;;;11.90;99.90;;;;;;5098178;28;20522;-76
2022/11/08 08:59:28;;;;;;;7.10;2.03;;;11.90;99.90;;;;;;5101305;28;20036;-76
2022/11/08 09:01:54;;;;;;;9.00;1.92;;;12.00;99.90;;;;;;5100016;28;20385;-76
2022/11/08 09:04:20;;;;;;;7.25;1.90;;;12.00;99.90;;;;;;5103585;28;20050;-76
2022/11/08 09:06:45;;;;;;;6.05;2.10;;;12.00;99.90;;;;;;5102277;28;20032;-75
2022/11/08 09:09:11;;;;;;;6.57;1.95;;;12.10;99.90;;;;;;5102701;27;20031;-74
2022/11/08 09:11:37;;;;;;;7.07;2.10;;;12.10;99.90;;;;;;5097350;28;20051;-75
2022/11/08 09:14:03;;;;;;;10.15;2.20;;;12.20;99.90;;;;;;5098957;28;20043;-75
2022/11/08 09:16:28;;;;;;;8.52;2.22;;;12.20;99.90;;;;;;5134121;27;20338;-75
2022/11/08 09:18:54;;;;;;;9.63;1.90;;;12.20;99.90;;;;;;5099691;28;20039;-75
2022/11/08 09:21:20;;;;;;;5.55;2.00;;;12.20;99.90;;;;;;5099259;28;20081;-75
2022/11/08 09:23:45;;;;;;;8.43;2.08;;;12.20;99.90;;;;;;5100716;28;20066;-75
2022/11/08 09:26:11;;;;;;;7.70;2.30;;;12.30;99.90;;;;;;5083438;28;20097;-75
2022/11/08 09:28:37;;;;;;;7.57;1.73;;;12.40;99.90;;;;;;5100680;28;20058;-75
2022/11/08 09:31:05;;;;;;;5.85;1.88;;;12.40;99.90;;;;;;5098267;28;20043;-75
2022/11/08 09:33:31;;;;;;;7.45;1.90;;;12.40;99.90;;;;;;5084474;28;20124;-75
2022/11/08 09:36:02;;;;;;;12.38;2.58;;;12.40;99.90;;;;;;5098682;28;20529;-75
2022/11/08 09:38:28;;;;;;;5.77;1.93;;;12.50;99.90;;;;;;5101888;28;20047;-74
2022/11/08 09:41:19;;;;;;;6.45;2.17;;;12.60;99.90;;;;;;5100654;28;20035;-75
2022/11/08 09:44:06;;;;;;;5.47;1.90;;;12.60;99.90;;;;;;5095073;28;20048;-75
2022/11/08 09:46:50;;;;;;;8.98;1.73;;;12.70;99.90;;;;;;5096811;27;20043;-74
2022/11/08 09:49:30;;;;;;;5.72;1.80;;;12.70;99.90;;;;;;5093447;28;20066;-74
2022/11/08 09:51:59;;;;;;;5.65;2.03;;;12.80;99.90;;;;;;5101674;28;20051;-74
2022/11/08 09:54:46;;;;;;;7.53;2.22;;;12.80;99.90;;;;;;5099299;28;20043;-74
2022/11/08 09:57:25;;;;;;;6.80;1.90;;;12.80;99.90;;;;;;5131409;27;20035;-75
2022/11/08 10:00:00;;;;;;;6.95;1.85;;;12.90;99.90;;;;;;5111667;27;20767;-76
2022/11/08 10:02:35;;;;;;;8.38;1.80;;;12.90;99.90;;;;;;5081194;28;20401;-75
2022/11/08 10:05:11;;;;;;;6.65;1.98;;;12.90;99.90;;;;;;5098189;28;20051;-75
2022/11/08 10:07:51;;;;;;;5.65;1.90;;;12.90;99.90;;;;;;5084199;28;20046;-75
2022/11/08 10:10:46;;;;;;;5.80;1.77;;;12.90;99.90;;;;;;5100978;28;20040;-74
2022/11/08 10:13:32;;;;;;;10.23;2.10;;;12.90;99.90;;;;;;5100989;28;20055;-75
2022/11/08 10:16:21;;;;;;;10.57;2.78;;;13.00;99.90;;;;;;5098313;28;20571;-74
2022/11/08 10:19:14;;;;;;;7.38;1.83;;;13.00;99.90;;;;;;5099286;28;20764;-75
2022/11/08 10:22:01;;;;;;;4.43;1.40;;;13.00;99.90;;;;;;5098318;28;20138;-75
2022/11/08 10:24:34;;;;;;;4.57;1.48;;;13.00;99.90;;;;;;5102749;27;20043;-74
2022/11/08 10:27:02;;;;;;;7.28;1.88;;;13.00;99.90;;;;;;5103348;28;20090;-76
2022/11/08 10:29:36;;;;;;;8.68;1.85;;;13.00;99.90;;;;;;5103079;28;20089;-75
2022/11/08 10:32:19;;;;;;;7.55;1.95;;;13.10;99.90;;;;;;5103773;28;20047;-74
2022/11/08 10:35:07;;;;;;;6.40;2.00;;;13.10;99.90;;;;;;5121830;27;20052;-74
2022/11/08 10:37:33;;;;;;;8.13;2.00;;;13.10;99.90;;;;;;5092361;27;20108;-74
2022/11/08 10:40:12;;;;;;;6.57;1.67;;;13.20;99.90;;;;;;5137348;27;20111;-75
2022/11/08 10:42:50;;;;;;;6.57;1.80;;;13.20;99.90;;;;;;5088409;27;20058;-75
2022/11/08 10:45:16;;;;;;;5.82;1.88;;;13.20;99.90;;;;;;5126291;27;20100;-75
2022/11/08 10:47:44;;;;;;;7.70;2.33;;;13.10;99.90;;;;;;5109246;27;20039;-75
2022/11/08 10:50:16;;;;;;;6.15;2.03;;;13.10;99.90;;;;;;5089877;27;20042;-75
2022/11/08 10:53:00;;;;;;;8.15;2.38;;;13.10;99.90;;;;;;5108584;27;20454;-74
2022/11/08 10:55:37;;;;;;;5.68;1.70;;;13.10;99.90;;;;;;5091727;27;20051;-76
2022/11/08 10:58:05;;;;;;;5.03;1.73;;;13.10;99.90;;;;;;5107427;27;20100;-76
2022/11/08 11:00:32;;;;;;;5.25;1.85;;;13.10;99.90;;;;;;5104812;27;20632;-76
2022/11/08 11:02:57;;;;;;;7.88;1.90;;;13.10;99.90;;;;;;5127914;27;20035;-75
2022/11/08 11:05:28;;;;;;;7.47;1.60;;;13.10;99.90;;;;;;5106253;27;20045;-75
2022/11/08 11:08:01;;;;;;;6.97;1.52;;;13.10;99.90;;;;;;5128946;27;20078;-75
2022/11/08 11:10:36;;;;;;;7.72;1.65;;;13.20;99.90;;;;;;5087369;27;20058;-75
2022/11/08 11:13:13;;;;;;;7.35;1.95;;;13.20;99.90;;;;;;5098480;27;20051;-74
2022/11/08 11:15:57;;;;;;;8.05;1.60;;;13.20;99.90;;;;;;5101168;27;20047;-76
2022/11/08 11:18:36;;;;;;;5.25;1.88;;;13.20;99.90;;;;;;5108462;27;20039;-76
2022/11/08 11:21:09;;;;;;;6.03;1.75;;;13.20;99.90;;;;;;5107509;27;20065;-75
2022/11/08 11:23:37;;;;;;;4.15;1.38;;;13.30;99.90;;;;;;5119823;27;20043;-76
2022/11/08 11:26:15;;;;;;;9.02;1.70;;;13.30;99.90;;;;;;5135810;27;20047;-75
2022/11/08 11:28:57;;;;;;;4.57;1.73;;;13.40;99.90;;;;;;5129372;27;20044;-75
2022/11/08 11:31:23;;;;;;;4.63;1.60;;;13.40;99.90;;;;;;5099916;27;20139;-75
2022/11/08 11:33:48;;;;;;;10.07;1.88;;;13.40;99.90;;;;;;5138726;27;20130;-75
2022/11/08 11:36:22;;;;;;;6.75;1.75;;;13.50;99.90;;;;;;5138443;27;20047;-76
2022/11/08 11:38:59;;;;;;;7.35;2.15;;;13.50;99.90;;;;;;5105537;27;20418;-75
2022/11/08 11:41:41;;;;;;;5.25;1.80;;;13.60;99.90;;;;;;5120704;27;20051;-75
2022/11/08 11:44:28;;;;;;;5.07;1.52;;;13.60;99.90;;;;;;5121013;27;20046;-75
2022/11/08 11:47:01;;;;;;;7.35;1.77;;;13.60;99.90;;;;;;5124872;27;20043;-76
2022/11/08 11:49:29;;;;;;;5.82;1.75;;;13.60;99.90;;;;;;5098277;27;20191;-75
2022/11/08 11:51:56;;;;;;;6.90;2.10;;;13.80;99.90;;;;;;5113475;27;20459;-74
2022/11/08 11:54:29;;;;;;;3.95;1.60;;;13.70;99.90;;;;;;5079381;27;20042;-75
2022/11/08 11:57:09;;;;;;;5.85;1.73;;;13.70;99.90;;;;;;5095227;27;20095;-75
2022/11/08 11:59:59;;;;;;;7.68;1.88;;;13.70;99.90;;;;;;5081314;27;20039;-74
2022/11/08 12:03:00;;;;;;;5.85;2.10;;;13.80;99.90;;;;;;5094933;27;20551;-75
2022/11/08 12:05:40;;;;;;;7.85;1.73;;;13.80;99.90;;;;;;5111964;27;20664;-74
2022/11/08 12:08:35;;;;;;;6.75;1.75;;;13.80;99.90;;;;;;5081897;27;20044;-75
2022/11/08 12:11:36;;;;;;;5.10;1.55;;;13.80;99.90;;;;;;5105028;27;20130;-75
2022/11/08 12:14:16;;;;;;;10.00;1.77;;;13.80;99.90;;;;;;5085139;27;20079;-75
2022/11/08 12:17:00;;;;;;;5.10;1.63;;;13.80;99.90;;;;;;5094165;28;20047;-75
2022/11/08 12:19:45;;;;;;;4.93;2.08;;;13.80;99.90;;;;;;5119879;27;20039;-76
2022/11/08 12:22:36;;;;;;;5.57;2.05;;;13.80;99.90;;;;;;5078855;28;20043;-75
2022/11/08 12:25:04;;;;;;;8.67;1.80;;;13.90;99.90;;;;;;5113400;27;20047;-75
2022/11/08 12:27:59;;;;;;;5.38;1.63;;;13.90;99.90;;;;;;5096467;27;20989;-76
2022/11/08 12:30:33;;;;;;;6.75;1.80;;;13.90;99.90;;;;;;5078607;28;20373;-75
2022/11/08 12:33:02;;;;;;;8.27;1.83;;;13.90;99.90;;;;;;5097255;27;20053;-74
2022/11/08 12:35:49;;;;;;;7.97;1.70;;;13.90;99.90;;;;;;5082425;27;20047;-75
2022/11/08 12:38:41;;;;;;;6.95;1.58;;;13.90;99.90;;;;;;5101177;27;20601;-75
2022/11/08 12:41:11;;;;;;;5.07;1.65;;;14.00;99.90;;;;;;5086036;27;20803;-75
2022/11/08 12:43:39;;;;;;;7.30;1.70;;;14.00;99.90;;;;;;5104207;27;20092;-75
2022/11/08 12:46:17;;;;;;;5.28;1.85;;;14.00;99.90;;;;;;5121799;27;20623;-75
2022/11/08 12:49:13;;;;;;;7.47;1.73;;;14.00;99.90;;;;;;5110190;27;20039;-76
2022/11/08 12:52:10;;;;;;;5.03;1.63;;;14.10;99.90;;;;;;5100844;27;20035;-76
2022/11/08 12:54:50;;;;;;;5.13;1.60;;;14.10;99.90;;;;;;5130885;27;20089;-75
2022/11/08 12:57:20;;;;;;;4.60;1.80;;;14.10;99.90;;;;;;5104466;27;20178;-75
2022/11/08 12:59:55;;;;;;;5.65;1.75;;;14.10;99.90;;;;;;5117241;27;20066;-75
2022/11/08 13:02:26;;;;;;;6.50;1.67;;;14.10;99.90;;;;;;5114832;27;20035;-75
2022/11/08 13:05:26;;;;;;;5.22;1.60;;;14.10;99.90;;;;;;5102500;27;20667;-76
2022/11/08 13:08:03;;;;;;;7.75;1.83;;;14.10;99.90;;;;;;5090838;28;20053;-75
2022/11/08 13:10:54;;;;;;;13.43;1.83;;;14.20;99.90;;;;;;5125260;27;20055;-75
2022/11/08 13:13:26;;;;;;;4.95;1.45;;;14.20;99.90;;;;;;5090542;27;20043;-74
2022/11/08 13:16:11;;;;;;;6.07;1.50;;;14.20;99.90;;;;;;5086228;27;20325;-75
2022/11/08 13:18:46;;;;;;;4.43;1.63;;;14.20;99.90;;;;;;5098273;27;20096;-76